Time;durP1;ratioP1;P1;durP2;ratioP2;P2;SDS_P1;SDS_P2;PMS_P1;PMS_P2;Temp;Humidity;BMP_temperature;BMP_pressure;BME280_temperature;BME280_humidity;BME280_pressure;Samples;Min_cycle;Max_cycle;Signal;HPM_P1;HPM_P2
2023/10/05 00:02:12;;;;;;;0.50;0.50;;;;;;;10.43;89.19;97856.94;29422;251;63004;-91
2023/10/05 00:02:55;;;;;;;0.50;0.50;;;;;;;10.43;89.81;97850.69;29394;232;64013;-92
2023/10/05 00:03:37;;;;;;;0.50;0.50;;;;;;;10.43;90.09;97850.69;29395;202;63004;-91
2023/10/05 00:04:15;;;;;;;0.50;0.50;;;;;;;10.42;90.23;97844.47;29395;271;63009;-92
2023/10/05 00:04:47;;;;;;;0.50;0.50;;;;;;;10.41;90.29;97848.25;29395;198;63005;-90
2023/10/05 00:05:26;;;;;;;0.50;0.50;;;;;;;10.40;90.44;97850.16;29395;396;63009;-90
2023/10/05 00:06:13;;;;;;;0.50;0.50;;;;;;;10.40;90.08;97849.34;29395;246;63005;-91
2023/10/05 00:06:53;;;;;;;0.50;0.50;;;;;;;10.41;89.13;97848.25;29395;247;63009;-93
2023/10/05 00:07:26;;;;;;;0.50;0.50;;;;;;;10.41;89.07;97850.97;29395;329;63005;-92
2023/10/05 00:08:02;;;;;;;0.50;0.50;;;;;;;10.38;88.78;97838.78;29394;212;64013;-92
2023/10/05 00:08:37;;;;;;;0.50;0.50;;;;;;;10.39;89.12;97842.31;29395;202;63004;-93
2023/10/05 00:09:12;;;;;;;0.50;0.50;;;;;;;10.38;89.09;97843.41;29395;391;63009;-92
2023/10/05 00:09:44;;;;;;;0.50;0.50;;;;;;;10.31;89.27;97827.38;29395;243;63019;-91
2023/10/05 00:10:17;;;;;;;0.50;0.50;;;;;;;10.41;89.86;97834.69;29394;202;64013;-92
2023/10/05 00:10:50;;;;;;;0.50;0.50;;;;;;;10.41;89.92;97831.97;29395;231;63004;-92
2023/10/05 00:11:30;;;;;;;0.50;0.50;;;;;;;10.41;89.65;97838.22;29395;230;63009;-92
2023/10/05 00:12:18;;;;;;;0.50;0.50;;;;;;;10.42;89.57;97839.03;29394;197;64009;-91
2023/10/05 00:13:15;;;;;;;0.50;0.50;;;;;;;10.43;88.92;97829.81;29395;224;63009;-92
2023/10/05 00:14:05;;;;;;;0.45;0.45;;;;;;;10.42;88.85;97836.31;29395;323;63005;-93
2023/10/05 00:14:48;;;;;;;0.50;0.50;;;;;;;10.44;89.13;97838.78;29394;202;64013;-93
2023/10/05 00:15:23;;;;;;;0.50;0.50;;;;;;;10.43;89.29;97835.25;29395;237;63005;-92
2023/10/05 00:15:56;;;;;;;0.50;0.50;;;;;;;10.44;89.26;97836.87;29395;433;63009;-93
2023/10/05 00:16:36;;;;;;;0.50;0.50;;;;;;;10.45;89.26;97832.25;29394;250;64016;-92
2023/10/05 00:17:29;;;;;;;0.50;0.50;;;;;;;10.45;89.18;97827.66;29395;475;63009;-92
2023/10/05 00:18:24;;;;;;;0.50;0.50;;;;;;;10.45;88.71;97833.06;29394;239;64008;-91
2023/10/05 00:18:57;;;;;;;0.50;0.50;;;;;;;10.45;88.55;97832.25;29395;237;63009;-92
2023/10/05 00:19:35;;;;;;;0.50;0.50;;;;;;;10.45;88.77;97827.66;29395;221;63005;-92
2023/10/05 00:20:14;;;;;;;0.50;0.50;;;;;;;10.46;88.62;97834.72;29395;254;63009;-93
2023/10/05 00:20:48;;;;;;;0.50;0.50;;;;;;;10.47;88.78;97824.66;29395;343;63005;-93
2023/10/05 00:21:21;;;;;;;0.50;0.50;;;;;;;10.47;88.93;97830.09;29395;264;63009;-91
2023/10/05 00:21:57;;;;;;;0.50;0.50;;;;;;;10.48;88.87;97829.00;29395;216;63005;-92
2023/10/05 00:22:32;;;;;;;0.50;0.50;;;;;;;10.49;88.66;97826.03;29395;202;63009;-93
2023/10/05 00:23:09;;;;;;;0.50;0.50;;;;;;;10.49;88.49;97822.50;29394;223;64009;-90
2023/10/05 00:23:41;;;;;;;0.50;0.50;;;;;;;10.50;88.55;97821.41;29395;264;63009;-90
2023/10/05 00:24:13;;;;;;;0.50;0.50;;;;;;;10.49;88.16;97822.50;29395;245;63004;-93
2023/10/05 00:24:48;;;;;;;0.50;0.50;;;;;;;10.51;88.36;97825.75;29395;206;63009;-92
2023/10/05 00:25:23;;;;;;;0.50;0.50;;;;;;;10.51;88.23;97826.56;29395;302;63004;-92
2023/10/05 00:25:56;;;;;;;0.50;0.50;;;;;;;10.52;87.69;97821.97;29395;237;63008;-89
2023/10/05 00:26:36;;;;;;;0.50;0.50;;;;;;;10.53;87.94;97829.84;29395;209;63005;-94
2023/10/05 00:27:09;;;;;;;0.50;0.50;;;;;;;10.54;87.62;97826.03;29395;202;63009;-91
2023/10/05 00:27:44;;;;;;;0.50;0.50;;;;;;;10.56;87.56;97832.00;29394;248;64009;-91
2023/10/05 00:28:20;;;;;;;0.50;0.50;;;;;;;10.57;87.81;97825.50;29395;248;63009;-90
2023/10/05 00:29:18;;;;;;;0.50;0.50;;;;;;;10.57;87.51;97824.69;29395;462;63005;-91
2023/10/05 00:29:57;;;;;;;0.50;0.50;;;;;;;10.55;87.18;97824.97;29395;222;63022;-92
2023/10/05 00:30:31;;;;;;;0.50;0.50;;;;;;;10.56;87.33;97820.34;29395;206;63004;-89
2023/10/05 00:31:03;;;;;;;0.50;0.50;;;;;;;10.56;87.33;97821.16;29395;206;63009;-91
2023/10/05 00:31:41;;;;;;;0.50;0.50;;;;;;;10.56;87.43;97823.88;29395;220;63016;-90
2023/10/05 00:32:22;;;;;;;0.50;0.50;;;;;;;10.57;87.49;97821.97;29395;232;63009;-91
2023/10/05 00:32:59;;;;;;;0.50;0.50;;;;;;;10.56;87.35;97818.44;29394;202;64009;-91
2023/10/05 00:33:32;;;;;;;0.50;0.50;;;;;;;10.56;87.15;97818.44;29395;301;63008;-91
2023/10/05 00:34:03;;;;;;;0.40;0.40;;;;;;;10.55;87.03;97816.81;29395;210;63005;-91
2023/10/05 00:34:35;;;;;;;0.50;0.50;;;;;;;10.55;87.20;97819.53;29395;214;63009;-90
2023/10/05 00:35:26;;;;;;;0.50;0.50;;;;;;;10.52;86.86;97820.06;29395;238;63015;-91
2023/10/05 00:35:59;;;;;;;0.50;0.50;;;;;;;10.48;86.92;97815.44;29416;197;64013;-92
2023/10/05 00:36:34;;;;;;;0.40;0.40;;;;;;;10.46;86.96;97818.44;29395;265;63005;-91
2023/10/05 00:37:07;;;;;;;0.50;0.50;;;;;;;10.47;87.42;97820.06;29395;220;63009;-90
2023/10/05 00:37:44;;;;;;;0.50;0.50;;;;;;;10.46;87.80;97821.13;29395;403;63005;-90
2023/10/05 00:38:19;;;;;;;0.40;0.40;;;;;;;10.47;87.79;97825.47;29395;202;63009;-91
2023/10/05 00:38:52;;;;;;;0.40;0.40;;;;;;;10.47;87.79;97817.34;29395;273;63004;-91
2023/10/05 00:39:25;;;;;;;0.50;0.50;;;;;;;10.47;87.83;97817.34;29394;238;64013;-92
2023/10/05 00:39:59;;;;;;;0.50;0.50;;;;;;;10.47;88.04;97809.19;29395;205;63004;-90
2023/10/05 00:40:42;;;;;;;0.50;0.50;;;;;;;10.47;88.16;97811.09;29395;237;63008;-91
2023/10/05 00:41:15;;;;;;;0.50;0.50;;;;;;;10.46;88.22;97807.56;29395;325;63004;-91
2023/10/05 00:41:57;;;;;;;0.50;0.50;;;;;;;10.46;88.10;97807.56;29395;223;63009;-91
2023/10/05 00:42:30;;;;;;;0.50;0.50;;;;;;;10.45;87.95;97811.38;29394;439;64009;-92
2023/10/05 00:43:19;;;;;;;0.50;0.50;;;;;;;10.45;88.08;97811.38;29395;305;63009;-90
2023/10/05 00:43:53;;;;;;;0.50;0.50;;;;;;;10.47;88.18;97809.19;29395;467;63005;-89
2023/10/05 00:44:28;;;;;;;0.40;0.40;;;;;;;10.46;88.21;97812.19;29395;242;63009;-90
2023/10/05 00:45:02;;;;;;;0.50;0.50;;;;;;;10.47;88.02;97805.69;29395;196;63014;-89
2023/10/05 00:45:38;;;;;;;0.50;0.50;;;;;;;10.48;87.84;97812.72;29395;231;63009;-90
2023/10/05 00:46:12;;;;;;;0.50;0.50;;;;;;;10.48;88.08;97810.84;29395;206;63004;-91
2023/10/05 00:46:50;;;;;;;0.50;0.50;;;;;;;10.47;87.60;97809.19;29395;253;63009;-92
2023/10/05 00:47:23;;;;;;;0.47;0.47;;;;;;;10.47;87.01;97809.19;29394;226;64008;-91
2023/10/05 00:48:08;;;;;;;0.40;0.40;;;;;;;10.48;86.98;97804.59;29395;253;63008;-92
2023/10/05 00:48:56;;;;;;;0.40;0.40;;;;;;;10.48;87.05;97815.44;29394;390;64008;-92
2023/10/05 00:49:41;;;;;;;0.50;0.50;;;;;;;10.49;87.34;97815.19;29395;258;63009;-91
2023/10/05 00:50:15;;;;;;;0.45;0.45;;;;;;;10.51;87.49;97814.91;29395;278;63005;-91
2023/10/05 00:50:47;;;;;;;0.50;0.50;;;;;;;10.50;87.42;97814.09;29395;259;63009;-94
2023/10/05 00:51:23;;;;;;;0.50;0.50;;;;;;;10.52;87.60;97813.81;29395;272;63005;-92
2023/10/05 00:52:13;;;;;;;0.50;0.50;;;;;;;10.52;87.57;97817.34;29395;264;63009;-93
2023/10/05 00:52:52;;;;;;;0.50;0.50;;;;;;;10.52;87.39;97817.34;29394;197;64009;-90
2023/10/05 00:53:28;;;;;;;0.50;0.50;;;;;;;10.54;87.50;97809.75;29395;247;63024;-91
2023/10/05 00:54:11;;;;;;;0.50;0.50;;;;;;;10.53;87.25;97813.56;29394;398;64009;-90
2023/10/05 00:54:54;;;;;;;0.50;0.50;;;;;;;10.54;87.22;97815.19;29395;262;63009;-91
2023/10/05 00:55:28;;;;;;;0.50;0.50;;;;;;;10.54;87.33;97809.75;29395;230;63004;-93
2023/10/05 00:56:09;;;;;;;0.50;0.50;;;;;;;10.54;87.25;97807.03;29395;280;63009;-92
2023/10/05 00:56:46;;;;;;;0.50;0.50;;;;;;;10.54;87.22;97801.62;29395;357;63005;-92
2023/10/05 00:57:22;;;;;;;0.50;0.50;;;;;;;10.54;86.79;97804.34;29395;291;63009;-91
2023/10/05 00:57:55;;;;;;;0.50;0.50;;;;;;;10.54;86.96;97798.91;29395;420;63005;-91
2023/10/05 00:58:38;;;;;;;0.50;0.50;;;;;;;10.55;86.83;97799.72;29395;337;63009;-91
2023/10/05 00:59:20;;;;;;;0.50;0.50;;;;;;;10.56;86.87;97799.44;29394;197;64009;-91
2023/10/05 01:00:10;;;;;;;0.50;0.50;;;;;;;10.56;87.00;97796.75;29395;391;63009;-92
2023/10/05 01:00:50;;;;;;;0.50;0.50;;;;;;;10.58;86.40;97797.28;29395;249;63014;-92
2023/10/05 01:01:24;;;;;;;0.50;0.50;;;;;;;10.58;86.68;97788.31;29417;224;63009;-90
2023/10/05 01:02:14;;;;;;;0.50;0.50;;;;;;;10.59;86.68;97790.78;29395;252;63004;-91
2023/10/05 01:03:46;;;;;;;0.50;0.50;;;;;;;10.61;86.59;97783.19;29395;252;63005;-91
2023/10/05 01:04:29;;;;;;;0.50;0.50;;;;;;;10.60;86.56;97786.97;29394;209;64014;-90
2023/10/05 01:05:15;;;;;;;0.50;0.50;;;;;;;10.60;86.57;97786.97;29395;375;63005;-93
2023/10/05 01:07:07;;;;;;;0.50;0.50;;;;;;;10.57;86.77;97784.81;29395;220;63005;-94
2023/10/05 01:07:49;;;;;;;0.50;0.50;;;;;;;10.55;87.00;97778.00;29395;196;63009;-91
2023/10/05 01:08:23;;;;;;;0.50;0.50;;;;;;;10.54;87.03;97782.63;29394;232;64009;-91
2023/10/05 01:09:04;;;;;;;0.50;0.50;;;;;;;10.53;87.17;97781.00;29395;307;63009;-91
2023/10/05 01:09:55;;;;;;;0.50;0.50;;;;;;;10.53;87.60;97782.87;29395;220;63004;-91
2023/10/05 01:10:40;;;;;;;0.50;0.50;;;;;;;10.53;87.62;97777.47;29395;423;63008;-92
2023/10/05 01:11:15;;;;;;;0.50;0.50;;;;;;;10.52;87.55;97779.38;29395;197;63005;-93
2023/10/05 01:11:54;;;;;;;0.50;0.50;;;;;;;10.52;87.55;97782.06;29395;243;63009;-90
2023/10/05 01:13:28;;;;;;;0.40;0.40;;;;;;;10.51;87.41;97777.72;29395;234;63009;-92
2023/10/05 01:14:03;;;;;;;0.50;0.50;;;;;;;10.48;87.25;97775.56;29416;360;64009;-92
2023/10/05 01:14:53;;;;;;;0.50;0.50;;;;;;;10.46;nan;97775.00;29395;215;63009;-89
2023/10/05 01:15:30;;;;;;;0.50;0.50;;;;;;;10.46;87.82;97775.00;29394;236;64009;-90
2023/10/05 01:16:19;;;;;;;0.50;0.50;;;;;;;10.45;87.78;97773.38;29394;229;64013;-91
2023/10/05 01:16:54;;;;;;;0.50;0.50;;;;;;;10.45;87.91;97773.38;29395;230;63004;-90
2023/10/05 01:17:30;;;;;;;0.50;0.50;;;;;;;10.44;87.96;97770.94;29395;364;63008;-91
2023/10/05 01:18:04;;;;;;;0.50;0.50;;;;;;;10.45;88.37;97772.56;29395;239;63004;-90
2023/10/05 01:18:36;;;;;;;0.50;0.50;;;;;;;10.44;88.32;97771.75;29395;336;63009;-91
2023/10/05 01:19:08;;;;;;;0.50;0.50;;;;;;;10.43;88.42;97772.84;29395;293;63005;-93
2023/10/05 01:19:43;;;;;;;0.50;0.50;;;;;;;10.43;88.54;97766.59;29395;205;63009;-91
2023/10/05 01:21:02;;;;;;;0.50;0.50;;;;;;;10.41;88.75;97766.88;29394;209;64013;-89
2023/10/05 01:21:37;;;;;;;0.50;0.50;;;;;;;10.40;88.99;97767.94;29395;242;63005;-89
2023/10/05 01:22:14;;;;;;;0.45;0.45;;;;;;;10.40;89.00;97765.25;29395;219;63015;-91
2023/10/05 01:22:47;;;;;;;0.50;0.50;;;;;;;10.39;88.88;97769.88;29395;250;63017;-91
2023/10/05 01:23:38;;;;;;;0.50;0.50;;;;;;;10.39;88.98;97766.34;29395;224;63009;-90
2023/10/05 01:24:11;;;;;;;;;;;;;;;10.40;88.90;97765.25;29996;983;6000;-90
2023/10/05 01:24:45;;;;;;;0.50;0.50;;;;;;;10.41;89.01;97761.44;29400;326;63004;-91
2023/10/05 01:25:17;;;;;;;0.50;0.50;;;;;;;10.41;88.95;97764.97;29395;199;63008;-91
2023/10/05 01:25:49;;;;;;;0.50;0.50;;;;;;;10.43;89.13;97767.41;29395;205;63005;-91
2023/10/05 01:26:20;;;;;;;0.50;0.50;;;;;;;10.43;89.31;97763.88;29394;197;64014;-91
2023/10/05 01:26:52;;;;;;;0.50;0.50;;;;;;;10.43;89.02;97761.16;29395;209;63005;-92
2023/10/05 01:27:29;;;;;;;0.50;0.50;;;;;;;10.43;88.86;97763.88;29395;257;63024;-90
2023/10/05 01:28:01;;;;;;;0.50;0.50;;;;;;;10.41;88.33;97764.16;29395;216;63010;-91
2023/10/05 01:28:33;;;;;;;0.50;0.50;;;;;;;10.42;87.94;97757.66;29394;224;64013;-90
2023/10/05 01:29:05;;;;;;;0.50;0.50;;;;;;;10.42;88.02;97765.78;29395;268;63016;-91
2023/10/05 01:29:38;;;;;;;0.50;0.50;;;;;;;10.43;87.97;97764.69;29394;264;64013;-92
2023/10/05 01:30:15;;;;;;;0.50;0.50;;;;;;;10.43;88.26;97764.69;29395;271;63004;-91
2023/10/05 01:30:47;;;;;;;0.50;0.50;;;;;;;10.45;88.31;97764.44;29395;214;63009;-91
2023/10/05 01:31:21;;;;;;;0.50;0.50;;;;;;;10.45;88.38;97770.66;29395;247;63004;-92
2023/10/05 01:31:53;;;;;;;0.50;0.50;;;;;;;10.46;88.35;97766.88;29395;221;63009;-89
2023/10/05 01:32:27;;;;;;;0.40;0.40;;;;;;;10.46;88.05;97766.88;29395;215;63004;-90
2023/10/05 01:33:01;;;;;;;0.50;0.50;;;;;;;10.46;87.93;97772.31;29395;206;63008;-90
2023/10/05 01:33:35;;;;;;;0.50;0.50;;;;;;;10.46;87.62;97764.16;29395;244;63005;-91
2023/10/05 01:34:08;;;;;;;0.50;0.50;;;;;;;10.48;87.51;97772.03;29395;284;63009;-93
2023/10/05 01:34:39;;;;;;;0.50;0.50;;;;;;;10.47;87.13;97771.22;29394;313;64009;-92
2023/10/05 01:35:15;;;;;;;0.50;0.50;;;;;;;10.47;86.73;97776.66;29395;238;63005;-91
2023/10/05 01:35:46;;;;;;;0.50;0.50;;;;;;;10.46;87.11;97772.31;29395;276;63005;-92
2023/10/05 01:36:19;;;;;;;0.50;0.50;;;;;;;10.46;87.05;97777.72;29395;241;63009;-91
2023/10/05 01:36:53;;;;;;;0.50;0.50;;;;;;;10.47;87.49;97771.22;29395;207;63005;-93
2023/10/05 01:37:31;;;;;;;0.50;0.50;;;;;;;10.48;87.92;97778.28;29395;197;63009;-90
2023/10/05 01:38:05;;;;;;;0.50;0.50;;;;;;;10.49;87.53;97776.37;29395;206;63004;-90
2023/10/05 01:38:40;;;;;;;0.50;0.50;;;;;;;10.50;87.27;97775.28;29395;213;63009;-91
2023/10/05 01:39:12;;;;;;;0.50;0.50;;;;;;;10.54;87.26;97776.37;29395;243;63004;-93
2023/10/05 01:39:45;;;;;;;0.50;0.50;;;;;;;10.55;87.37;97778.81;29394;255;64013;-92
2023/10/05 01:41:02;;;;;;;0.50;0.50;;;;;;;10.54;86.87;97771.78;29417;205;63009;-93
2023/10/05 01:41:37;;;;;;;0.50;0.50;;;;;;;10.55;86.76;97769.88;29395;212;63005;-91
2023/10/05 01:42:14;;;;;;;0.47;0.47;;;;;;;10.55;86.96;97775.28;29395;234;63009;-90
2023/10/05 01:42:47;;;;;;;0.50;0.50;;;;;;;10.56;87.07;97769.59;29395;227;63005;-91
2023/10/05 01:43:22;;;;;;;0.50;0.50;;;;;;;10.56;86.70;97775.03;29395;267;63009;-89
2023/10/05 01:43:57;;;;;;;0.50;0.50;;;;;;;10.56;86.71;97764.16;29395;214;63005;-90
2023/10/05 01:44:30;;;;;;;0.50;0.50;;;;;;;10.55;86.75;97767.97;29395;230;63009;-91
2023/10/05 01:45:06;;;;;;;1.05;1.05;;;;;;;10.53;86.83;97759.28;29394;202;64009;-91
2023/10/05 01:45:38;;;;;;;0.50;0.50;;;;;;;10.52;86.70;97773.13;29395;215;63020;-89
2023/10/05 01:46:11;;;;;;;0.50;0.50;;;;;;;10.52;87.05;97773.13;29394;218;64009;-91
2023/10/05 01:46:42;;;;;;;0.47;0.47;;;;;;;10.50;86.89;97776.09;29396;307;63009;-91
2023/10/05 01:47:22;;;;;;;0.50;0.50;;;;;;;10.49;86.77;97773.66;29396;252;63004;-93
2023/10/05 01:47:54;;;;;;;0.40;0.40;;;;;;;10.48;87.03;97772.84;29396;215;63008;-91
2023/10/05 01:48:30;;;;;;;0.50;0.50;;;;;;;10.46;87.21;97769.59;29396;199;63004;-91
2023/10/05 01:49:02;;;;;;;0.50;0.50;;;;;;;10.45;87.71;97772.56;29396;279;63009;-90
2023/10/05 01:49:36;;;;;;;0.50;0.50;;;;;;;10.44;87.71;97773.66;29396;248;63005;-91
2023/10/05 01:50:14;;;;;;;0.50;0.50;;;;;;;10.42;87.65;97763.06;29395;214;64023;-92
2023/10/05 01:50:50;;;;;;;0.50;0.50;;;;;;;10.43;87.68;97769.31;29396;262;63005;-91
2023/10/05 01:51:25;;;;;;;0.50;0.50;;;;;;;10.41;87.75;97764.16;29395;215;64013;-92
2023/10/05 01:51:57;;;;;;;0.50;0.50;;;;;;;10.41;87.49;97761.44;29396;199;63004;-91
2023/10/05 01:52:30;;;;;;;0.50;0.50;;;;;;;10.37;87.13;97757.66;29396;216;63016;-91
2023/10/05 01:53:08;;;;;;;0.47;0.47;;;;;;;10.35;87.07;97759.84;29396;198;63004;-93
2023/10/05 01:53:43;;;;;;;0.50;0.50;;;;;;;10.31;86.94;97762.28;29395;227;64013;-90
2023/10/05 01:54:17;;;;;;;0.50;0.50;;;;;;;10.25;87.92;97763.34;29396;250;63004;-92
2023/10/05 01:54:51;;;;;;;0.50;0.50;;;;;;;10.23;87.84;97760.09;29396;220;63008;-91
2023/10/05 01:55:27;;;;;;;0.50;0.50;;;;;;;10.18;88.41;97762.75;29396;221;63004;-91
2023/10/05 01:56:00;;;;;;;0.50;0.50;;;;;;;10.15;88.57;97757.88;29395;278;64014;-90
2023/10/05 01:56:32;;;;;;;0.50;0.50;;;;;;;10.15;88.79;97765.19;29396;441;63005;-92
2023/10/05 01:57:08;;;;;;;0.50;0.50;;;;;;;10.13;88.98;97756.50;29396;284;63009;-92
2023/10/05 01:57:44;;;;;;;0.40;0.40;;;;;;;10.16;89.43;97764.91;29396;213;63005;-89
2023/10/05 01:58:24;;;;;;;0.50;0.50;;;;;;;10.16;89.32;97764.09;29396;205;63014;-91
2023/10/05 01:58:59;;;;;;;0.50;0.50;;;;;;;10.14;89.12;97755.41;29417;397;64009;-93
2023/10/05 01:59:34;;;;;;;0.50;0.50;;;;;;;10.12;88.95;97755.69;29396;236;63009;-92
2023/10/05 02:00:15;;;;;;;0.50;0.50;;;;;;;10.07;89.04;97756.47;29396;199;63004;-92
2023/10/05 02:00:49;;;;;;;0.50;0.50;;;;;;;10.06;89.44;97760.28;29396;221;63009;-90
2023/10/05 02:01:34;;;;;;;0.50;0.50;;;;;;;10.02;89.80;97752.97;29396;425;63004;-91
2023/10/05 02:02:10;;;;;;;0.50;0.50;;;;;;;9.98;89.96;97755.41;29396;250;63008;-90
2023/10/05 02:02:42;;;;;;;0.50;0.50;;;;;;;9.98;90.16;97754.59;29396;196;63003;-91
2023/10/05 02:03:26;;;;;;;0.50;0.50;;;;;;;9.98;90.37;97752.69;29396;226;63009;-90
2023/10/05 02:03:59;;;;;;;0.50;0.50;;;;;;;9.98;90.78;97751.87;29395;238;64009;-91
2023/10/05 02:04:38;;;;;;;0.50;0.50;;;;;;;10.00;91.15;97745.09;29396;457;63009;-92
2023/10/05 02:05:12;;;;;;;0.50;0.50;;;;;;;10.01;91.00;97745.94;29396;223;63005;-92
2023/10/05 02:05:47;;;;;;;0.40;0.40;;;;;;;10.00;90.55;97747.81;29396;224;63009;-92
2023/10/05 02:06:21;;;;;;;0.50;0.50;;;;;;;10.01;90.14;97745.94;29396;262;63010;-91
2023/10/05 02:06:54;;;;;;;0.47;0.47;;;;;;;10.02;90.14;97747.56;29396;215;63022;-92
2023/10/05 02:07:26;;;;;;;0.50;0.50;;;;;;;10.01;90.27;97752.16;29396;270;63004;-92
2023/10/05 02:07:59;;;;;;;0.50;0.50;;;;;;;10.00;90.25;97750.53;29395;226;64013;-90
2023/10/05 02:08:35;;;;;;;0.50;0.50;;;;;;;10.01;90.16;97745.94;29396;204;63004;-91
2023/10/05 02:09:10;;;;;;;0.50;0.50;;;;;;;9.98;90.22;97754.59;29396;212;63009;-90
2023/10/05 02:09:43;;;;;;;0.50;0.50;;;;;;;9.97;90.19;97750.25;29396;314;63004;-90
2023/10/05 02:10:19;;;;;;;0.50;0.50;;;;;;;9.95;90.01;97747.81;29396;380;63008;-90
2023/10/05 02:10:52;;;;;;;0.50;0.50;;;;;;;9.94;90.28;97751.59;29396;232;63005;-91
2023/10/05 02:11:25;;;;;;;0.50;0.50;;;;;;;9.92;90.44;97756.47;29396;266;63009;-90
2023/10/05 02:12:01;;;;;;;0.50;0.50;;;;;;;9.92;90.56;97751.06;29396;290;63005;-91
2023/10/05 02:12:36;;;;;;;0.50;0.50;;;;;;;9.90;90.30;97755.09;29396;202;63016;-92
2023/10/05 02:13:12;;;;;;;0.50;0.50;;;;;;;9.88;90.40;97752.66;29395;250;64009;-92
2023/10/05 02:13:45;;;;;;;0.50;0.50;;;;;;;9.88;90.63;97752.66;29396;235;63009;-93
2023/10/05 02:14:21;;;;;;;0.50;0.50;;;;;;;9.89;90.96;97751.59;29396;210;63005;-89
2023/10/05 02:14:54;;;;;;;0.50;0.50;;;;;;;9.89;90.70;97754.28;29396;214;63009;-90
2023/10/05 02:15:28;;;;;;;0.50;0.50;;;;;;;9.88;90.56;97758.09;29396;248;63004;-91
2023/10/05 02:16:02;;;;;;;0.50;0.50;;;;;;;9.87;90.31;97753.75;29396;241;63009;-91
2023/10/05 02:16:39;;;;;;;0.50;0.50;;;;;;;9.87;90.35;97753.75;29396;237;63012;-91
2023/10/05 02:17:13;;;;;;;0.50;0.50;;;;;;;9.86;90.36;97754.81;29396;203;63008;-89
2023/10/05 02:17:51;;;;;;;0.50;0.50;;;;;;;9.85;90.44;97752.37;29396;239;63004;-90
2023/10/05 02:18:24;;;;;;;0.50;0.50;;;;;;;9.85;90.77;97755.91;29395;252;64014;-91
2023/10/05 02:18:59;;;;;;;0.50;0.50;;;;;;;9.84;90.77;97746.13;29396;304;63005;-92
2023/10/05 02:19:31;;;;;;;0.50;0.50;;;;;;;9.83;90.52;97749.94;29396;218;63009;-91
2023/10/05 02:20:08;;;;;;;0.50;0.50;;;;;;;9.83;90.56;97749.94;29396;256;63010;-90
2023/10/05 02:20:43;;;;;;;0.50;0.50;;;;;;;9.82;90.57;97742.88;29396;208;63009;-92
2023/10/05 02:21:17;;;;;;;0.50;0.50;;;;;;;9.80;90.69;97746.94;29396;249;63005;-92
2023/10/05 02:21:55;;;;;;;0.50;0.50;;;;;;;9.77;90.64;97748.28;29396;248;63024;-91
2023/10/05 02:22:27;;;;;;;0.50;0.50;;;;;;;9.76;90.62;97743.94;29396;287;63004;-92
2023/10/05 02:23:04;;;;;;;0.50;0.50;;;;;;;9.77;91.02;97756.41;29396;203;63009;-91
2023/10/05 02:23:44;;;;;;;0.50;0.50;;;;;;;9.76;90.80;97743.94;29395;254;64009;-89
2023/10/05 02:24:17;;;;;;;0.40;0.40;;;;;;;9.74;90.40;97751.53;29396;238;63009;-90
2023/10/05 02:24:52;;;;;;;0.50;0.50;;;;;;;9.71;90.37;97746.63;29396;255;63004;-91
2023/10/05 02:25:36;;;;;;;0.50;0.50;;;;;;;9.68;90.37;97744.47;29396;336;63009;-91
2023/10/05 02:27:17;;;;;;;0.50;0.50;;;;;;;9.56;90.93;97754.72;29395;253;64013;-91
2023/10/05 02:27:48;;;;;;;0.50;0.50;;;;;;;9.56;91.43;97757.44;29396;288;63005;-91
2023/10/05 02:28:25;;;;;;;0.50;0.50;;;;;;;9.53;91.60;97753.34;29396;254;63009;-90
2023/10/05 02:28:56;;;;;;;0.50;0.50;;;;;;;9.53;91.75;97756.06;29396;203;63005;-91
2023/10/05 02:29:33;;;;;;;0.40;0.40;;;;;;;9.53;91.90;97760.66;29395;225;64013;-92
2023/10/05 02:30:09;;;;;;;0.50;0.50;;;;;;;9.55;92.77;97750.38;29397;301;63009;-91
2023/10/05 02:30:44;;;;;;;0.50;0.50;;;;;;;9.54;92.54;97762.31;29397;196;63009;-90
2023/10/05 02:31:20;;;;;;;0.50;0.50;;;;;;;9.54;92.58;97754.19;29397;395;63004;-92
2023/10/05 02:32:10;;;;;;;0.50;0.50;;;;;;;9.55;92.60;97755.81;29397;199;63009;-91
2023/10/05 02:32:44;;;;;;;0.50;0.50;;;;;;;9.59;92.00;97754.19;29397;233;63004;-91
2023/10/05 02:33:21;;;;;;;0.50;0.50;;;;;;;9.60;91.97;97758.53;29397;258;63009;-90
2023/10/05 02:33:54;;;;;;;0.50;0.50;;;;;;;9.61;91.87;97757.47;29397;363;63005;-92
2023/10/05 02:34:38;;;;;;;0.50;0.50;;;;;;;9.62;91.90;97759.09;29397;525;63009;-92
2023/10/05 02:35:24;;;;;;;0.50;0.50;;;;;;;9.62;91.80;97757.19;29395;276;64009;-92
2023/10/05 02:36:54;;;;;;;0.50;0.50;;;;;;;9.64;91.44;97760.47;29397;241;63005;-90
2023/10/05 02:37:28;;;;;;;0.50;0.50;;;;;;;9.63;90.77;97750.69;29397;204;63009;-92
2023/10/05 02:38:05;;;;;;;0.50;0.50;;;;;;;9.65;90.48;97753.16;29397;264;63004;-90
2023/10/05 02:38:39;;;;;;;0.50;0.50;;;;;;;9.64;90.16;97748.81;29397;253;63009;-91
2023/10/05 02:39:11;;;;;;;0.50;0.50;;;;;;;9.62;90.18;97748.25;29397;224;63004;-90
2023/10/05 02:39:43;;;;;;;0.50;0.50;;;;;;;9.61;90.49;97752.03;29397;230;63008;-92
2023/10/05 02:40:16;;;;;;;0.50;0.50;;;;;;;9.62;90.43;97748.25;29396;203;64008;-91
2023/10/05 02:40:54;;;;;;;0.50;0.50;;;;;;;9.61;90.67;97746.63;29397;229;63009;-92
2023/10/05 02:41:39;;;;;;;0.50;0.50;;;;;;;9.60;90.83;97747.69;29397;226;63005;-92
2023/10/05 02:42:13;;;;;;;0.62;0.62;;;;;;;9.59;91.33;97746.06;29397;229;63009;-91
2023/10/05 02:42:45;;;;;;;0.50;0.50;;;;;;;9.60;91.46;97745.81;29396;223;64005;-91
2023/10/05 02:43:17;;;;;;;0.50;0.50;;;;;;;9.59;91.58;97748.78;29397;234;63009;-90
2023/10/05 02:43:53;;;;;;;0.50;0.50;;;;;;;9.58;91.24;97742.53;29396;205;63005;-90
2023/10/05 02:44:28;;;;;;;0.50;0.50;;;;;;;9.59;91.22;97754.19;29396;387;63009;-91
2023/10/05 02:45:05;;;;;;;0.50;0.50;;;;;;;9.56;91.41;97749.31;29396;263;63004;-92
2023/10/05 02:45:37;;;;;;;0.50;0.50;;;;;;;9.55;91.42;97750.38;29395;206;64013;-91
2023/10/05 02:46:10;;;;;;;0.50;0.50;;;;;;;9.54;91.31;97752.28;29397;242;63004;-92
2023/10/05 02:46:47;;;;;;;0.50;0.50;;;;;;;9.54;91.24;97748.75;29396;230;63009;-91
2023/10/05 02:47:23;;;;;;;0.50;0.50;;;;;;;9.54;91.19;97754.19;29396;227;63004;-91
2023/10/05 02:47:57;;;;;;;0.50;0.50;;;;;;;9.54;91.50;97754.19;29396;261;63008;-90
2023/10/05 02:48:30;;;;;;;0.50;0.50;;;;;;;9.54;91.52;97754.19;29396;236;63005;-91
2023/10/05 02:49:03;;;;;;;0.40;0.40;;;;;;;9.52;91.35;97753.63;29396;231;63009;-91
2023/10/05 02:49:43;;;;;;;0.50;0.50;;;;;;;9.53;91.25;97755.25;29396;242;63005;-92
2023/10/05 02:50:16;;;;;;;0.50;0.50;;;;;;;9.54;91.79;97748.75;29396;198;63009;-92
2023/10/05 02:50:51;;;;;;;0.50;0.50;;;;;;;9.54;92.10;97746.03;29395;554;64009;-93
2023/10/05 02:51:24;;;;;;;0.50;0.50;;;;;;;9.55;92.32;97743.06;29396;339;63009;-90
2023/10/05 02:51:56;;;;;;;0.50;0.50;;;;;;;9.56;92.85;97739.28;29396;226;63005;-91
2023/10/05 02:52:39;;;;;;;0.50;0.50;;;;;;;9.56;92.58;97743.88;29418;202;63017;-93
2023/10/05 02:53:11;;;;;;;0.50;0.50;;;;;;;9.56;92.81;97747.41;29396;249;63010;-92
2023/10/05 02:53:55;;;;;;;0.50;0.50;;;;;;;9.56;92.89;97742.00;29396;251;63009;-93
2023/10/05 02:54:30;;;;;;;0.50;0.50;;;;;;;9.57;93.20;97740.91;29417;205;64009;-93
2023/10/05 02:55:10;;;;;;;0.60;0.60;;;;;;;9.58;93.43;97739.84;29396;214;63008;-90
2023/10/05 02:55:41;;;;;;;0.50;0.50;;;;;;;9.59;93.55;97740.66;29396;260;63005;-91
2023/10/05 02:56:29;;;;;;;0.50;0.50;;;;;;;9.60;93.30;97742.28;29396;261;63009;-92
2023/10/05 02:57:07;;;;;;;0.50;0.50;;;;;;;9.59;93.13;97743.38;29396;207;63005;-91
2023/10/05 02:57:39;;;;;;;0.50;0.50;;;;;;;9.59;92.92;97744.19;29396;268;63009;-91
2023/10/05 02:58:13;;;;;;;0.50;0.50;;;;;;;9.59;92.54;97743.38;29396;327;63005;-92
2023/10/05 02:58:50;;;;;;;0.50;0.50;;;;;;;9.57;92.58;97748.22;29396;327;63009;-92
2023/10/05 02:59:29;;;;;;;0.50;0.50;;;;;;;9.54;92.54;97746.03;29395;253;64009;-92
2023/10/05 03:00:06;;;;;;;0.50;0.50;;;;;;;9.54;92.58;97746.03;29396;287;63017;-92
2023/10/05 03:00:44;;;;;;;0.50;0.50;;;;;;;9.52;92.74;97748.19;29396;265;63004;-91
2023/10/05 03:01:17;;;;;;;0.50;0.50;;;;;;;9.52;92.66;97748.19;29396;408;63009;-91
2023/10/05 03:01:49;;;;;;;0.50;0.50;;;;;;;9.52;92.96;97753.63;29396;259;63004;-92
2023/10/05 03:02:23;;;;;;;0.50;0.50;;;;;;;9.52;93.16;97745.50;29396;263;63008;-92
2023/10/05 03:02:56;;;;;;;0.50;0.50;;;;;;;9.53;93.06;97747.94;29396;199;63004;-91